Time;durP1;ratioP1;P1;durP2;ratioP2;P2;SDS_P1;SDS_P2;PMS_P1;PMS_P2;Temp;Humidity;BMP_temperature;BMP_pressure;BME280_temperature;BME280_humidity;BME280_pressure;Samples;Min_cycle;Max_cycle;Signal;HPM_P1;HPM_P2
2021/04/01 00:01:35;;;;;;;12.13;5.78;;;10.60;67.50;;;;;;5091443;28;20028;-64
2021/04/01 00:04:01;;;;;;;11.13;5.35;;;10.60;67.40;;;;;;5090890;28;20020;-66
2021/04/01 00:06:26;;;;;;;7.30;5.00;;;10.60;67.60;;;;;;5091427;28;20132;-67
2021/04/01 00:08:52;;;;;;;9.70;5.30;;;10.60;67.50;;;;;;5090611;28;20035;-66
2021/04/01 00:11:18;;;;;;;9.00;5.18;;;10.50;67.60;;;;;;5088869;28;20142;-65
2021/04/01 00:13:43;;;;;;;9.00;5.38;;;10.50;68.00;;;;;;5090519;28;20457;-70
2021/04/01 00:16:09;;;;;;;10.70;5.32;;;10.50;67.90;;;;;;5091366;28;20016;-67
2021/04/01 00:18:35;;;;;;;14.02;6.47;;;10.50;67.60;;;;;;5091097;28;20057;-69
2021/04/01 00:21:01;;;;;;;12.90;5.82;;;10.40;67.40;;;;;;5079969;28;20028;-68
2021/04/01 00:23:27;;;;;;;11.38;5.70;;;10.40;67.50;;;;;;5091381;28;20027;-64
2021/04/01 00:25:52;;;;;;;9.07;4.97;;;10.40;67.70;;;;;;5089545;28;20492;-68
2021/04/01 00:28:18;;;;;;;10.02;4.93;;;10.40;67.50;;;;;;5088393;28;20032;-67
2021/04/01 00:30:44;;;;;;;8.85;5.13;;;10.40;67.30;;;;;;5078662;28;20472;-69
2021/04/01 00:33:09;;;;;;;10.13;5.45;;;10.30;67.60;;;;;;5091274;28;20026;-66
2021/04/01 00:35:35;;;;;;;7.55;4.65;;;10.30;67.80;;;;;;5090295;28;20369;-69
2021/04/01 00:38:01;;;;;;;10.70;5.50;;;10.30;67.90;;;;;;5089999;28;20129;-67
2021/04/01 00:40:27;;;;;;;12.68;5.60;;;10.20;67.90;;;;;;5080516;28;20392;-68
2021/04/01 00:42:53;;;;;;;9.68;5.18;;;10.20;68.30;;;;;;5089809;28;20032;-69
2021/04/01 00:45:19;;;;;;;8.18;4.80;;;10.20;68.30;;;;;;5087914;28;20024;-66
2021/04/01 00:47:50;;;;;;;7.10;4.70;;;10.10;68.50;;;;;;5089975;28;20042;-67
2021/04/01 00:50:30;;;;;;;7.68;4.57;;;10.10;68.60;;;;;;5090097;28;20036;-69
2021/04/01 00:52:57;;;;;;;11.68;5.05;;;10.00;68.50;;;;;;5089802;28;20051;-66
2021/04/01 00:55:23;;;;;;;10.25;5.28;;;9.90;68.70;;;;;;5090351;28;20032;-66
2021/04/01 00:57:51;;;;;;;12.77;5.65;;;9.90;68.90;;;;;;5090046;28;20028;-66
2021/04/01 01:00:21;;;;;;;8.02;4.72;;;9.90;69.20;;;;;;5090920;28;20032;-69
2021/04/01 01:02:47;;;;;;;7.05;4.35;;;9.80;69.40;;;;;;5090579;28;20042;-68
2021/04/01 01:05:14;;;;;;;9.00;4.75;;;9.80;69.40;;;;;;5090323;28;20032;-66
2021/04/01 01:07:40;;;;;;;7.10;4.70;;;9.70;69.40;;;;;;5088099;28;20096;-66
2021/04/01 01:10:09;;;;;;;9.80;4.75;;;9.70;69.40;;;;;;5090516;28;20032;-68
2021/04/01 01:12:35;;;;;;;8.50;4.82;;;9.60;69.60;;;;;;5090104;28;20362;-67
2021/04/01 01:15:01;;;;;;;8.60;5.15;;;9.60;70.00;;;;;;5089145;28;20035;-68
2021/04/01 01:17:27;;;;;;;9.27;5.72;;;9.60;70.70;;;;;;5080867;28;20493;-68
2021/04/01 01:19:53;;;;;;;7.53;4.72;;;9.60;70.60;;;;;;5089306;28;20181;-68
2021/04/01 01:22:20;;;;;;;7.60;4.45;;;9.60;70.60;;;;;;5090316;28;20388;-62
2021/04/01 01:24:46;;;;;;;8.07;4.63;;;9.60;70.70;;;;;;5089606;28;20039;-66
2021/04/01 01:27:13;;;;;;;9.82;5.50;;;9.50;71.00;;;;;;5089699;28;20370;-66
2021/04/01 01:29:39;;;;;;;11.65;4.80;;;9.50;70.70;;;;;;5090210;28;20110;-64
2021/04/01 01:32:06;;;;;;;8.27;4.95;;;9.40;71.10;;;;;;5089751;28;20028;-66
2021/04/01 01:34:35;;;;;;;7.55;5.20;;;9.40;71.40;;;;;;5090059;28;20043;-67
2021/04/01 01:37:01;;;;;;;10.27;6.18;;;9.40;71.60;;;;;;5086946;28;20657;-65
2021/04/01 01:39:27;;;;;;;11.07;5.40;;;9.40;71.90;;;;;;5090110;28;20038;-65
2021/04/01 01:41:53;;;;;;;12.48;5.80;;;9.40;71.60;;;;;;5089182;28;20036;-65
2021/04/01 01:44:18;;;;;;;8.80;5.10;;;9.30;71.90;;;;;;5075334;28;20454;-65
2021/04/01 01:46:44;;;;;;;11.65;5.10;;;9.40;72.50;;;;;;5089093;28;20024;-67
2021/04/01 01:49:09;;;;;;;9.38;5.75;;;9.30;71.70;;;;;;5089825;28;20032;-66
2021/04/01 01:51:35;;;;;;;8.35;5.07;;;9.30;71.60;;;;;;5091139;28;20036;-67
2021/04/01 01:54:01;;;;;;;12.48;6.00;;;9.30;71.60;;;;;;5090167;28;20028;-65
2021/04/01 01:56:27;;;;;;;9.40;5.15;;;9.30;71.50;;;;;;5090725;28;20059;-67
2021/04/01 01:58:57;;;;;;;8.05;5.25;;;9.30;71.60;;;;;;5090475;28;20457;-65
2021/04/01 02:01:25;;;;;;;13.27;5.90;;;9.20;71.50;;;;;;5091322;28;20090;-64
2021/04/01 02:03:51;;;;;;;11.07;5.15;;;9.20;71.50;;;;;;5090539;28;20032;-65
2021/04/01 02:06:19;;;;;;;8.20;5.30;;;9.30;71.60;;;;;;5090324;28;20089;-66
2021/04/01 02:08:45;;;;;;;7.85;5.20;;;9.20;71.50;;;;;;5090190;28;20032;-68
2021/04/01 02:11:11;;;;;;;7.53;4.47;;;9.20;71.50;;;;;;5090940;28;20104;-67
2021/04/01 02:13:37;;;;;;;9.90;4.78;;;9.20;71.50;;;;;;5090513;28;20453;-64
2021/04/01 02:16:03;;;;;;;11.73;5.75;;;9.10;71.90;;;;;;5090237;28;20016;-64
2021/04/01 02:18:30;;;;;;;10.80;6.65;;;9.10;72.30;;;;;;5091068;28;20036;-66
2021/04/01 02:20:57;;;;;;;10.77;5.93;;;9.10;72.60;;;;;;5089825;28;20036;-67
2021/04/01 02:23:25;;;;;;;9.57;5.25;;;9.10;72.40;;;;;;5091008;28;20042;-64
2021/04/01 02:25:52;;;;;;;13.43;5.28;;;9.00;72.50;;;;;;5090007;28;20028;-61
2021/04/01 02:28:21;;;;;;;11.55;5.13;;;9.00;73.20;;;;;;5090398;28;20024;-62
2021/04/01 02:30:50;;;;;;;11.70;5.10;;;9.00;73.60;;;;;;5090057;28;20146;-65
2021/04/01 02:33:18;;;;;;;10.52;5.75;;;9.00;73.60;;;;;;5090421;28;20402;-61
2021/04/01 02:35:44;;;;;;;17.60;5.43;;;9.00;73.80;;;;;;5090315;28;20053;-67
2021/04/01 02:38:09;;;;;;;9.73;5.15;;;9.00;74.00;;;;;;5090736;28;20024;-62
2021/04/01 02:40:36;;;;;;;10.75;5.25;;;9.00;74.10;;;;;;5090668;28;20131;-64
2021/04/01 02:43:02;;;;;;;10.38;5.20;;;8.90;74.00;;;;;;5089804;28;20105;-65
2021/04/01 02:45:28;;;;;;;12.77;5.72;;;8.90;73.90;;;;;;5094017;28;20461;-64
2021/04/01 02:47:54;;;;;;;10.77;5.32;;;8.90;74.30;;;;;;5093522;28;20028;-64
2021/04/01 02:50:20;;;;;;;9.65;5.47;;;8.80;74.60;;;;;;5094431;28;20035;-64
2021/04/01 02:52:46;;;;;;;14.75;5.80;;;8.80;74.70;;;;;;5093303;28;20093;-65
2021/04/01 02:55:12;;;;;;;10.68;5.55;;;8.80;75.20;;;;;;5093880;28;20446;-65
2021/04/01 02:57:39;;;;;;;13.20;5.72;;;8.70;75.40;;;;;;5093978;28;20028;-67
2021/04/01 03:00:09;;;;;;;11.80;5.18;;;8.80;75.50;;;;;;5092467;28;20864;-61
2021/04/01 03:02:36;;;;;;;12.75;5.55;;;8.80;75.50;;;;;;5093883;28;20051;-64
2021/04/01 03:05:07;;;;;;;12.95;6.25;;;8.80;75.50;;;;;;5093146;28;20043;-66
2021/04/01 03:07:37;;;;;;;12.98;6.10;;;8.80;75.50;;;;;;5093667;28;20550;-67
2021/04/01 03:10:08;;;;;;;11.05;5.85;;;8.70;75.70;;;;;;5092523;28;20043;-65
2021/04/01 03:12:34;;;;;;;12.00;5.75;;;8.80;75.90;;;;;;5093921;28;20056;-61
2021/04/01 03:14:59;;;;;;;13.43;6.43;;;8.80;75.90;;;;;;5093159;28;20430;-64
2021/04/01 03:17:25;;;;;;;15.13;5.97;;;8.90;75.90;;;;;;5093582;28;20133;-67
2021/04/01 03:19:51;;;;;;;10.57;5.53;;;8.90;75.70;;;;;;5093094;28;20107;-64
2021/04/01 03:22:17;;;;;;;11.32;5.32;;;9.00;75.20;;;;;;5093618;28;20066;-62
2021/04/01 03:24:42;;;;;;;9.90;5.07;;;9.00;74.90;;;;;;5084713;28;20056;-67
2021/04/01 03:27:08;;;;;;;10.10;5.00;;;9.00;75.00;;;;;;5074449;28;20028;-63
2021/04/01 03:29:34;;;;;;;10.07;5.40;;;8.90;75.10;;;;;;5093609;28;20032;-66
2021/04/01 03:32:00;;;;;;;10.40;5.90;;;8.90;75.40;;;;;;5092347;28;20116;-63
2021/04/01 03:34:26;;;;;;;12.35;5.65;;;8.80;75.50;;;;;;5093336;28;20028;-63
2021/04/01 03:36:51;;;;;;;10.32;4.85;;;8.80;76.00;;;;;;5092804;28;20020;-66
2021/04/01 03:39:17;;;;;;;8.98;5.65;;;8.70;76.20;;;;;;5093217;28;20529;-60
2021/04/01 03:41:43;;;;;;;13.60;6.45;;;8.70;76.60;;;;;;5092580;28;20120;-68
2021/04/01 03:44:08;;;;;;;10.80;5.82;;;8.60;77.40;;;;;;5093075;28;20035;-63
2021/04/01 03:46:37;;;;;;;10.38;5.18;;;8.60;77.50;;;;;;5093348;28;20028;-65
2021/04/01 03:49:04;;;;;;;12.15;5.65;;;8.60;77.60;;;;;;5092115;28;20056;-65
2021/04/01 03:51:30;;;;;;;15.38;5.90;;;8.60;77.80;;;;;;5093008;28;20421;-64
2021/04/01 03:53:56;;;;;;;12.45;6.20;;;8.50;78.80;;;;;;5091947;28;20111;-66
2021/04/01 03:56:21;;;;;;;13.00;6.22;;;8.50;78.40;;;;;;5091396;28;20107;-66
2021/04/01 04:13:33;;;;;;;10.15;5.30;;;8.30;79.70;;;;;;5092428;28;20039;-65
2021/04/01 04:16:00;;;;;;;10.70;6.22;;;8.30;80.00;;;;;;5092104;28;20027;-60
2021/04/01 04:18:25;;;;;;;11.43;5.47;;;8.30;80.10;;;;;;5091986;28;20544;-64
2021/04/01 04:20:51;;;;;;;12.30;5.63;;;8.30;80.30;;;;;;5091695;28;20134;-64
2021/04/01 04:23:19;;;;;;;9.95;5.93;;;8.30;80.40;;;;;;5091914;28;20115;-63
2021/04/01 04:25:44;;;;;;;13.52;5.85;;;8.20;80.60;;;;;;5092309;28;20020;-66
2021/04/01 04:28:17;;;;;;;12.10;5.47;;;8.20;80.80;;;;;;5091886;28;20554;-66
2021/04/01 04:30:43;;;;;;;11.18;6.50;;;8.20;80.90;;;;;;5092005;28;20036;-64
2021/04/01 04:33:09;;;;;;;11.05;5.97;;;8.20;81.60;;;;;;5091361;28;20122;-64
2021/04/01 04:35:35;;;;;;;12.38;6.18;;;8.20;81.60;;;;;;5092167;28;20035;-63
2021/04/01 04:38:01;;;;;;;14.57;6.00;;;8.10;81.70;;;;;;5091519;28;20027;-63
2021/04/01 04:40:27;;;;;;;8.77;5.53;;;8.10;81.80;;;;;;5091773;28;20036;-67
2021/04/01 04:42:53;;;;;;;11.27;6.03;;;8.00;81.90;;;;;;5091295;28;20027;-66
2021/04/01 04:45:18;;;;;;;13.68;6.00;;;8.00;82.30;;;;;;5091821;28;20104;-63
2021/04/01 04:47:44;;;;;;;11.95;6.18;;;8.00;83.00;;;;;;5092173;28;20028;-65
2021/04/01 04:50:10;;;;;;;10.25;6.25;;;8.00;83.40;;;;;;5089085;28;20028;-63
2021/04/01 04:52:36;;;;;;;9.65;5.15;;;8.00;83.10;;;;;;5091909;28;20028;-66
2021/04/01 04:55:05;;;;;;;11.15;5.47;;;8.00;83.20;;;;;;5082210;28;20028;-61
2021/04/01 04:57:37;;;;;;;12.02;5.43;;;8.00;83.40;;;;;;5091098;28;20067;-65
2021/04/01 05:00:23;;;;;;;12.05;6.10;;;8.00;83.60;;;;;;5090965;28;20032;-66
2021/04/01 05:05:40;;;;;;;13.32;6.05;;;8.00;83.40;;;;;;5072513;28;20044;-64
2021/04/01 05:08:06;;;;;;;12.73;6.30;;;8.00;83.50;;;;;;5090092;28;20176;-65
2021/04/01 05:10:32;;;;;;;9.07;5.85;;;8.10;83.40;;;;;;5091583;28;20185;-66
2021/04/01 05:13:08;;;;;;;12.40;6.22;;;8.10;83.30;;;;;;5090602;28;20050;-64
2021/04/01 05:15:41;;;;;;;12.55;5.80;;;8.10;83.30;;;;;;5091486;28;20032;-66
2021/04/01 05:18:23;;;;;;;9.77;5.65;;;8.20;83.00;;;;;;5091001;28;20110;-67
2021/04/01 05:20:50;;;;;;;10.40;5.40;;;8.20;82.50;;;;;;5089226;28;20032;-66
2021/04/01 05:23:28;;;;;;;12.45;5.70;;;8.20;82.10;;;;;;5091517;28;20040;-63
2021/04/01 05:26:16;;;;;;;11.85;6.80;;;8.20;82.40;;;;;;5090309;28;20020;-67
2021/04/01 05:28:42;;;;;;;12.27;6.80;;;8.30;82.40;;;;;;5090330;28;20169;-63
2021/04/01 05:31:10;;;;;;;14.02;6.57;;;8.30;82.50;;;;;;5092226;28;20035;-67
2021/04/01 05:33:40;;;;;;;14.77;6.55;;;8.40;82.20;;;;;;5080474;28;20028;-64
2021/04/01 05:36:10;;;;;;;18.83;7.63;;;8.50;82.00;;;;;;5078493;28;20020;-65
2021/04/01 05:38:38;;;;;;;8.68;5.50;;;8.50;81.60;;;;;;5096947;28;20036;-65
2021/04/01 05:41:03;;;;;;;10.30;6.03;;;8.70;81.40;;;;;;5095470;28;20051;-66
2021/04/01 05:43:37;;;;;;;11.52;6.28;;;8.70;80.90;;;;;;5096943;28;20036;-67
2021/04/01 05:46:11;;;;;;;11.20;5.68;;;8.80;80.20;;;;;;5088934;28;20032;-62
2021/04/01 05:48:51;;;;;;;12.98;5.78;;;9.00;80.00;;;;;;5086346;28;20073;-63
2021/04/01 05:55:08;;;;;;;14.23;5.90;;;9.30;79.30;;;;;;5089257;28;20122;-62
2021/04/01 05:57:15;;;;;;;12.02;6.07;;;9.50;78.20;;;;;;5080762;28;20048;-68
2021/04/01 06:03:31;;;;;;;10.32;4.93;;;9.80;75.40;;;;;;5090732;28;20127;-66
2021/04/01 06:05:30;;;;;;;9.60;5.25;;;10.00;74.80;;;;;;5074945;28;20044;-65
2021/04/01 06:08:06;;;;;;;10.80;5.50;;;10.20;74.60;;;;;;5089314;28;20059;-66
2021/04/01 06:10:34;;;;;;;9.68;4.85;;;10.30;74.10;;;;;;5072421;28;20442;-63
2021/04/01 06:13:09;;;;;;;12.43;6.40;;;10.30;73.90;;;;;;5089949;28;20078;-65
2021/04/01 06:15:35;;;;;;;10.48;5.50;;;10.40;73.60;;;;;;5090316;28;20024;-65
2021/04/01 06:18:09;;;;;;;11.23;5.00;;;10.40;73.30;;;;;;5071934;28;20035;-63
2021/04/01 06:20:36;;;;;;;16.60;8.25;;;10.40;73.20;;;;;;5094397;28;20036;-62
2021/04/01 06:23:03;;;;;;;45.17;22.02;;;10.40;73.50;;;;;;5085407;28;20036;-61
2021/04/01 06:25:34;;;;;;;36.03;16.88;;;10.50;74.10;;;;;;5092904;28;20032;-62
2021/04/01 06:28:04;;;;;;;63.95;27.90;;;10.60;73.80;;;;;;5093851;28;20032;-65
2021/04/01 06:30:37;;;;;;;69.30;25.95;;;10.70;74.40;;;;;;5076461;28;20085;-63
2021/04/01 06:33:10;;;;;;;40.55;18.00;;;10.80;73.90;;;;;;5093885;28;20081;-66
2021/04/01 06:40:42;;;;;;;14.48;6.88;;;11.20;71.40;;;;;;5090980;28;20361;-61
2021/04/01 06:43:17;;;;;;;14.82;6.63;;;11.40;70.50;;;;;;5074952;28;20035;-64
2021/04/01 06:45:51;;;;;;;14.18;6.47;;;11.50;69.70;;;;;;5094245;28;20068;-64
2021/04/01 06:48:21;;;;;;;11.82;6.30;;;11.70;69.30;;;;;;5093758;28;20077;-62
2021/04/01 06:50:49;;;;;;;12.85;6.13;;;11.90;68.80;;;;;;5093977;28;20035;-62
2021/04/01 06:53:30;;;;;;;26.50;6.15;;;12.20;68.10;;;;;;5092543;28;20060;-63
2021/04/01 06:56:18;;;;;;;18.73;7.13;;;12.30;67.00;;;;;;5092150;28;20105;-62
2021/04/01 06:58:58;;;;;;;16.65;7.95;;;12.50;66.70;;;;;;5094118;28;20062;-64
2021/04/01 07:01:56;;;;;;;16.58;7.75;;;12.60;66.80;;;;;;5085896;28;20024;-62
2021/04/01 07:04:32;;;;;;;15.23;7.50;;;12.70;66.40;;;;;;5092987;28;20036;-62
2021/04/01 07:07:16;;;;;;;14.47;7.50;;;12.70;66.30;;;;;;5092757;28;20090;-62
2021/04/01 07:12:34;;;;;;;16.65;7.07;;;12.70;66.10;;;;;;5093759;28;20035;-64
2021/04/01 07:15:12;;;;;;;14.82;7.20;;;12.80;66.00;;;;;;5087359;28;20031;-62
2021/04/01 07:17:44;;;;;;;25.08;6.97;;;12.90;66.00;;;;;;5074617;28;20032;-63
2021/04/01 07:44:59;;;;;;;17.48;7.50;;;13.80;64.00;;;;;;5092879;28;20062;-62
2021/04/01 07:47:33;;;;;;;18.83;7.57;;;14.10;63.30;;;;;;5092879;28;20039;-64
2021/04/01 07:50:19;;;;;;;23.33;8.07;;;14.30;62.80;;;;;;5079045;28;20435;-66
2021/04/01 07:52:55;;;;;;;20.45;7.68;;;14.40;62.30;;;;;;5082941;28;20028;-66
2021/04/01 08:05:56;;;;;;;23.88;8.57;;;15.40;60.50;;;;;;5092206;28;20035;-66
2021/04/01 08:08:23;;;;;;;15.15;7.32;;;15.60;59.30;;;;;;5091702;28;20044;-64
2021/04/01 08:10:50;;;;;;;14.00;7.30;;;15.80;58.90;;;;;;5091967;28;20031;-62
2021/04/01 08:13:28;;;;;;;17.63;7.95;;;16.00;59.00;;;;;;5091446;28;20020;-62
2021/04/01 08:15:58;;;;;;;20.90;6.97;;;16.20;58.40;;;;;;5091723;28;20052;-65
2021/04/01 08:18:33;;;;;;;13.73;7.38;;;16.30;57.90;;;;;;5090494;28;20028;-64
2021/04/01 08:21:01;;;;;;;20.27;7.38;;;16.40;57.70;;;;;;5091433;28;20032;-64
2021/04/01 08:23:32;;;;;;;14.75;7.50;;;16.40;58.00;;;;;;5091776;28;20443;-63
2021/04/01 08:33:59;;;;;;;15.70;7.28;;;16.70;56.90;;;;;;5091694;28;20043;-64
2021/04/01 08:36:27;;;;;;;11.82;6.25;;;16.70;57.00;;;;;;5091053;28;20032;-63
2021/04/01 08:38:53;;;;;;;10.23;6.40;;;16.70;57.30;;;;;;5091815;28;20037;-65
2021/04/01 08:41:35;;;;;;;13.88;7.20;;;16.70;57.70;;;;;;5092266;28;20063;-63
2021/04/01 08:44:19;;;;;;;13.02;6.65;;;16.80;57.10;;;;;;5072299;28;20043;-62
2021/04/01 08:46:57;;;;;;;14.77;8.20;;;17.10;57.10;;;;;;5091578;28;20055;-61
2021/04/01 08:50:00;;;;;;;20.25;7.53;;;17.50;56.00;;;;;;5091649;28;20043;-60
2021/04/01 08:52:54;;;;;;;20.30;8.05;;;17.90;54.00;;;;;;5086476;28;20107;-62
2021/04/01 08:55:27;;;;;;;16.02;8.63;;;18.10;53.60;;;;;;5090828;28;20032;-60
2021/04/01 08:58:18;;;;;;;12.25;7.03;;;18.20;53.10;;;;;;5091266;28;20450;-65
2021/04/01 09:00:44;;;;;;;15.20;7.10;;;18.40;52.70;;;;;;5091058;28;20040;-60
2021/04/01 09:03:16;;;;;;;13.35;7.15;;;18.40;52.90;;;;;;5090601;28;20028;-61
2021/04/01 09:05:55;;;;;;;15.70;6.38;;;18.70;52.30;;;;;;5090894;28;20060;-64
2021/04/01 09:08:29;;;;;;;19.58;7.05;;;19.00;52.10;;;;;;5091215;28;20085;-62
2021/04/01 09:10:56;;;;;;;12.77;6.47;;;19.20;51.90;;;;;;5090261;28;20081;-65
2021/04/01 09:13:33;;;;;;;13.75;6.50;;;19.50;51.80;;;;;;5089231;28;20063;-62
2021/04/01 09:16:10;;;;;;;19.63;7.68;;;19.70;50.80;;;;;;5089293;28;20036;-61
2021/04/01 09:18:37;;;;;;;15.52;7.72;;;19.90;50.30;;;;;;5091034;28;20520;-61
2021/04/01 09:21:05;;;;;;;15.32;5.72;;;20.10;49.70;;;;;;5089381;28;20078;-61
2021/04/01 09:23:43;;;;;;;13.77;5.63;;;20.20;49.10;;;;;;5090750;28;20435;-61
2021/04/01 09:26:13;;;;;;;11.23;5.30;;;20.20;47.60;;;;;;5086735;28;20028;-65
2021/04/01 09:28:41;;;;;;;11.55;5.38;;;20.20;47.60;;;;;;5064126;28;20032;-64
2021/04/01 09:31:12;;;;;;;13.77;6.45;;;20.10;48.10;;;;;;5089393;28;21766;-61
2021/04/01 09:33:40;;;;;;;11.77;5.68;;;20.00;47.30;;;;;;5090976;28;20481;-60
2021/04/01 09:36:11;;;;;;;11.43;6.10;;;20.00;48.20;;;;;;5081232;28;20028;-63
2021/04/01 09:38:40;;;;;;;13.38;5.90;;;19.90;48.00;;;;;;5090020;28;20518;-64
2021/04/01 09:41:07;;;;;;;9.23;5.07;;;19.80;48.80;;;;;;5086689;28;20446;-62
2021/04/01 09:43:33;;;;;;;11.85;5.88;;;19.80;48.30;;;;;;5088765;28;20388;-63
2021/04/01 09:46:11;;;;;;;11.43;5.22;;;20.00;47.80;;;;;;5089730;28;20063;-64
2021/04/01 09:48:41;;;;;;;21.10;6.07;;;20.00;48.40;;;;;;5083265;28;20028;-63
2021/04/01 09:51:22;;;;;;;12.07;5.60;;;20.10;47.90;;;;;;5090221;28;20032;-63
2021/04/01 09:53:54;;;;;;;23.30;7.28;;;20.10;48.20;;;;;;5092276;28;20031;-63
2021/04/01 09:56:26;;;;;;;11.00;5.43;;;20.20;48.10;;;;;;5093552;28;20106;-63
2021/04/01 09:58:53;;;;;;;14.43;5.93;;;20.10;47.60;;;;;;5088730;28;20486;-63
2021/04/01 10:01:27;;;;;;;12.57;6.38;;;20.20;47.80;;;;;;5094371;28;20040;-63
2021/04/01 10:04:01;;;;;;;19.98;6.20;;;20.30;47.40;;;;;;5095235;28;20397;-62
2021/04/01 10:06:42;;;;;;;18.67;6.22;;;20.30;47.20;;;;;;5094897;28;20035;-63
2021/04/01 10:09:18;;;;;;;14.98;5.45;;;20.40;47.70;;;;;;5093625;28;20055;-61
2021/04/01 10:11:52;;;;;;;10.80;6.05;;;20.50;46.60;;;;;;5094786;28;20032;-64
2021/04/01 10:14:18;;;;;;;12.98;5.95;;;20.50;46.60;;;;;;5094149;28;20016;-62
2021/04/01 10:17:17;;;;;;;16.25;5.60;;;20.70;46.30;;;;;;5094254;28;20397;-62
2021/04/01 10:19:54;;;;;;;13.80;5.47;;;21.00;46.50;;;;;;5049527;28;20069;-62
2021/04/01 10:22:23;;;;;;;11.57;5.43;;;21.20;45.20;;;;;;5091754;28;20055;-64
2021/04/01 10:25:13;;;;;;;11.77;4.93;;;21.30;45.10;;;;;;5090795;28;20024;-62
2021/04/01 10:27:46;;;;;;;12.40;4.77;;;21.40;45.00;;;;;;5094469;28;20043;-60
2021/04/01 10:30:12;;;;;;;17.17;5.05;;;21.60;44.50;;;;;;5087616;28;20274;-61
2021/04/01 10:33:01;;;;;;;7.95;4.90;;;21.90;44.80;;;;;;5094716;28;20065;-63
2021/04/01 10:35:29;;;;;;;16.02;5.07;;;22.10;44.00;;;;;;5094560;28;20031;-62
2021/04/01 10:37:57;;;;;;;9.68;4.97;;;22.10;43.50;;;;;;5094045;28;20028;-62
2021/04/01 10:40:23;;;;;;;10.70;5.30;;;22.30;43.60;;;;;;5093842;28;20552;-62
2021/04/01 10:43:02;;;;;;;12.70;4.93;;;22.40;44.00;;;;;;5094176;28;20095;-61
2021/04/01 10:45:36;;;;;;;10.27;4.32;;;22.50;42.60;;;;;;5094157;28;20032;-61
2021/04/01 10:48:33;;;;;;;16.85;5.38;;;22.70;42.20;;;;;;5093813;28;20024;-62
2021/04/01 10:51:04;;;;;;;15.93;5.28;;;23.00;41.90;;;;;;5089292;28;20144;-64
2021/04/01 10:53:31;;;;;;;17.52;4.82;;;23.00;41.30;;;;;;5094312;28;20469;-62
2021/04/01 10:56:03;;;;;;;11.88;4.57;;;23.20;41.60;;;;;;5093199;28;20024;-65
2021/04/01 10:58:29;;;;;;;18.17;4.70;;;23.40;41.10;;;;;;5093025;28;20068;-64
2021/04/01 11:00:57;;;;;;;9.07;4.40;;;23.50;40.70;;;;;;5093483;28;20060;-65
2021/04/01 11:03:40;;;;;;;9.35;3.92;;;23.50;41.10;;;;;;5093513;28;20115;-62
2021/04/01 11:06:07;;;;;;;8.98;3.58;;;23.60;40.20;;;;;;5085595;28;20036;-62
2021/04/01 11:08:41;;;;;;;8.45;4.13;;;23.60;40.30;;;;;;5093654;28;20044;-62
2021/04/01 11:11:08;;;;;;;7.55;3.75;;;23.80;39.80;;;;;;5085695;28;20035;-61
2021/04/01 11:13:44;;;;;;;13.93;4.22;;;23.90;39.70;;;;;;5075280;28;20465;-63
2021/04/01 11:16:14;;;;;;;9.98;4.50;;;24.10;39.20;;;;;;5093246;28;20028;-63
2021/04/01 11:18:49;;;;;;;22.35;3.83;;;24.20;39.30;;;;;;5093659;28;20028;-63
2021/04/01 11:21:19;;;;;;;33.85;4.28;;;24.30;39.00;;;;;;5093102;28;20047;-64
2021/04/01 11:23:45;;;;;;;18.05;3.53;;;24.60;39.40;;;;;;5093169;28;20486;-63
2021/04/01 11:26:11;;;;;;;26.80;4.88;;;24.80;38.60;;;;;;5092203;28;20107;-63
2021/04/01 11:28:46;;;;;;;11.38;3.83;;;24.90;38.20;;;;;;5075406;28;20124;-64
2021/04/01 11:31:25;;;;;;;15.27;2.80;;;25.20;37.30;;;;;;5092038;28;20546;-63
2021/04/01 11:33:56;;;;;;;10.82;3.50;;;25.30;37.00;;;;;;5072575;28;20033;-63
2021/04/01 11:36:23;;;;;;;7.72;3.45;;;25.20;37.30;;;;;;5071648;28;20064;-62
2021/04/01 11:38:55;;;;;;;10.93;4.70;;;25.30;37.20;;;;;;5075228;28;20028;-63
2021/04/01 11:41:23;;;;;;;12.15;2.85;;;25.40;37.00;;;;;;5092903;28;20165;-63
2021/04/01 11:43:51;;;;;;;6.07;2.83;;;25.40;36.90;;;;;;5093021;28;20040;-61
2021/04/01 11:46:26;;;;;;;5.22;2.60;;;25.50;36.30;;;;;;5092441;28;20032;-63
2021/04/01 11:48:53;;;;;;;9.57;3.03;;;25.60;36.20;;;;;;5092785;28;20464;-64
2021/04/01 11:51:24;;;;;;;7.72;2.60;;;25.70;36.00;;;;;;5092509;28;20036;-63
2021/04/01 11:53:50;;;;;;;6.75;2.88;;;25.90;35.90;;;;;;5093042;28;20146;-64
2021/04/01 11:56:16;;;;;;;8.00;2.97;;;26.30;35.50;;;;;;5092133;28;20100;-64
2021/04/01 11:58:42;;;;;;;6.07;2.78;;;26.50;35.20;;;;;;5074730;28;20028;-64
2021/04/01 12:01:24;;;;;;;4.00;2.75;;;26.50;35.30;;;;;;5092033;28;20039;-64
2021/04/01 12:04:02;;;;;;;5.70;2.78;;;26.60;35.50;;;;;;5067815;28;20039;-65
2021/04/01 12:06:29;;;;;;;9.38;3.03;;;27.00;35.50;;;;;;5092954;28;20483;-65
2021/04/01 12:08:56;;;;;;;7.10;2.78;;;27.30;34.80;;;;;;5093190;28;20066;-65
2021/04/01 12:11:23;;;;;;;6.90;2.75;;;27.80;33.70;;;;;;5074004;28;20051;-64
2021/04/01 12:13:49;;;;;;;9.00;3.25;;;27.70;34.20;;;;;;5092431;28;20484;-68
2021/04/01 12:16:19;;;;;;;10.13;3.33;;;27.70;34.20;;;;;;5091115;28;20020;-67
2021/04/01 12:18:46;;;;;;;17.63;3.17;;;27.50;34.30;;;;;;5084928;28;20036;-65
2021/04/01 12:21:13;;;;;;;8.27;2.80;;;27.60;34.10;;;;;;5091355;28;20032;-65
2021/04/01 12:23:46;;;;;;;5.90;3.03;;;27.40;33.30;;;;;;5092152;28;20057;-64
2021/04/01 12:26:12;;;;;;;11.13;3.00;;;27.20;34.00;;;;;;5091126;28;20482;-65
2021/04/01 12:28:38;;;;;;;5.03;2.75;;;27.10;34.00;;;;;;5091849;28;20542;-65
2021/04/01 12:31:10;;;;;;;8.27;2.78;;;27.10;34.50;;;;;;5091452;28;20028;-62
2021/04/01 12:33:50;;;;;;;6.50;2.50;;;27.30;35.80;;;;;;5085362;28;20481;-65
2021/04/01 12:36:16;;;;;;;5.97;2.45;;;27.50;34.00;;;;;;5090946;28;20020;-65
2021/04/01 12:38:46;;;;;;;4.55;2.78;;;27.80;33.10;;;;;;5091621;28;20504;-65
2021/04/01 12:41:26;;;;;;;;;;;28.00;32.90;;;;;;5091639;28;20020;-64
2021/04/01 12:43:52;;;;;;;4.07;2.25;;;28.30;32.90;;;;;;5092222;28;19923;-64
2021/04/01 12:46:18;;;;;;;6.03;2.88;;;28.30;32.60;;;;;;5091384;28;20036;-64
2021/04/01 12:48:54;;;;;;;5.65;3.20;;;28.30;32.20;;;;;;5092242;28;20374;-64
2021/04/01 12:51:21;;;;;;;4.22;2.60;;;27.90;32.70;;;;;;5091098;28;20068;-65
2021/04/01 12:54:12;;;;;;;11.23;3.45;;;27.60;33.30;;;;;;5083831;28;20217;-64
2021/04/01 12:56:50;;;;;;;6.63;2.65;;;27.40;32.80;;;;;;5086123;28;20039;-64
2021/04/01 12:59:24;;;;;;;5.53;2.70;;;27.30;33.00;;;;;;5091204;28;20389;-64
2021/04/01 13:01:53;;;;;;;6.30;2.42;;;27.50;33.30;;;;;;5091986;28;20123;-62
2021/04/01 13:04:22;;;;;;;6.97;2.15;;;27.60;32.30;;;;;;5090348;28;20031;-64
2021/04/01 13:11:45;;;;;;;5.47;2.38;;;26.90;32.50;;;;;;5091548;28;20119;-63
2021/04/01 13:14:11;;;;;;;6.72;3.10;;;26.60;32.70;;;;;;5090614;28;20385;-64
2021/04/01 13:16:37;;;;;;;7.75;2.72;;;26.40;32.30;;;;;;5091132;28;20035;-64
2021/04/01 13:19:06;;;;;;;12.27;2.40;;;26.20;32.80;;;;;;5091019;28;20063;-66
2021/04/01 13:24:02;;;;;;;7.40;2.55;;;25.80;34.20;;;;;;5091359;28;20035;-63
2021/04/01 13:26:30;;;;;;;5.20;2.83;;;25.70;35.00;;;;;;5089953;28;20038;-64
2021/04/01 13:28:56;;;;;;;8.80;2.65;;;25.70;34.40;;;;;;5090671;28;20020;-62
2021/04/01 13:31:45;;;;;;;9.95;3.30;;;25.80;35.00;;;;;;5089868;28;20024;-63
2021/04/01 13:36:52;;;;;;;6.43;3.50;;;25.90;35.40;;;;;;5090937;28;20023;-64
2021/04/01 13:39:25;;;;;;;10.95;2.90;;;25.90;35.60;;;;;;5090575;28;20028;-63
2021/04/01 13:44:21;;;;;;;9.95;3.00;;;25.50;35.10;;;;;;5090522;28;20114;-64
2021/04/01 13:46:48;;;;;;;8.13;3.17;;;25.30;34.90;;;;;;5091181;28;20038;-62
2021/04/01 13:49:21;;;;;;;7.35;2.55;;;25.30;35.10;;;;;;5090627;28;20028;-64
2021/04/01 13:51:49;;;;;;;14.38;2.50;;;25.40;34.60;;;;;;5091062;28;20028;-64
2021/04/01 13:54:29;;;;;;;10.00;3.08;;;25.60;33.30;;;;;;5089994;28;20397;-64
2021/04/01 13:57:10;;;;;;;7.15;2.90;;;25.50;33.80;;;;;;5089810;28;20036;-64
2021/04/01 14:00:01;;;;;;;8.15;2.85;;;25.50;33.70;;;;;;5085371;28;20081;-64
2021/04/01 14:11:14;;;;;;;8.52;3.08;;;25.40;34.40;;;;;;5088504;28;20090;-63
2021/04/01 14:13:42;;;;;;;12.05;3.40;;;25.50;34.40;;;;;;5090853;28;20040;-63
2021/04/01 14:16:08;;;;;;;9.32;3.88;;;25.40;34.70;;;;;;5089762;28;20099;-63
2021/04/01 14:18:35;;;;;;;8.48;3.60;;;25.30;34.80;;;;;;5090917;28;20080;-63
2021/04/01 14:21:01;;;;;;;11.07;4.07;;;25.20;35.20;;;;;;5090999;28;20036;-64
2021/04/01 14:23:29;;;;;;;7.85;4.22;;;25.10;35.20;;;;;;5072091;28;20494;-64
2021/04/01 14:25:58;;;;;;;13.38;4.40;;;25.10;35.40;;;;;;5091044;28;20100;-63
2021/04/01 14:28:25;;;;;;;12.40;4.37;;;25.10;34.80;;;;;;5090379;28;20028;-64
2021/04/01 14:30:51;;;;;;;12.35;5.25;;;25.20;34.80;;;;;;5082565;28;20028;-63
2021/04/01 14:33:17;;;;;;;8.45;4.10;;;25.30;34.50;;;;;;5089828;28;20032;-64
2021/04/01 14:35:44;;;;;;;9.20;4.38;;;25.30;34.70;;;;;;5090797;28;20035;-63